Search for airport 
image banner adimage banner adimage banner ad
image banner ad

6PA6 - Air Haven

Located in Moscow, United States

ICAO - 6PA6, IATA -

Data provided by Airmate  

General information

Coordinates: N41°21'0" W75°28'59"
Elevation is 1550 feet MSL.
Magnetic variation is -12° East
View others Airports in Pennsylvania

Operational data

Special qualification required
Current time UTC:
Current local time:
Weather at : KAVP - Wilkes-Barre/Scranton Intl ( 20 km )
METAR: KAVP 091654Z 26012KT 10SM FEW095 13/03 A2999 RMK AO2 SLP155 T01330028
TAF: KAVP 091120Z 0912/1012 VRB03KT P6SM BKN200 FM091800 22007KT P6SM OVC025 TEMPO 0918/0919 4SM -RA BR FM091900 21007KT 3SM RA BR OVC015 FM092000 17006KT 3SM SHRA BR OVC010 FM101000 33006KT 6SM BR OVC010
View NOTAMs / SUP AIP / TFR affecting this airport [VIEW]
Communications frequencies: [VIEW]

Runways:

RWY identifierQFULength (ft)Width (ft)SurfaceLDA (ft)
N1600100GRASS
S1600100GRASS

Airport contact information

Address: Moscow United States

Satellite view of 6PA6